Time;durP1;ratioP1;P1;durP2;ratioP2;P2;SDS_P1;SDS_P2;PMS_P1;PMS_P2;Temp;Humidity;BMP_temperature;BMP_pressure;BME280_temperature;BME280_humidity;BME280_pressure;Samples;Min_cycle;Max_cycle;Signal;HPM_P1;HPM_P2
2021/06/23 00:02:17;;;;;;;1.38;0.40;;;21.20;57.70;;;;;;5033224;28;20491;-46
2021/06/23 00:04:43;;;;;;;1.98;0.65;;;21.30;57.80;;;;;;5033154;28;20022;-47
2021/06/23 00:07:09;;;;;;;1.13;0.70;;;21.20;57.80;;;;;;5033191;28;20025;-48
2021/06/23 00:09:34;;;;;;;1.90;0.45;;;21.30;57.90;;;;;;5032740;28;20024;-47
2021/06/23 00:12:00;;;;;;;1.92;0.63;;;20.90;57.60;;;;;;5033052;28;20029;-47
2021/06/23 00:14:26;;;;;;;0.90;0.50;;;21.10;57.80;;;;;;5033114;28;20045;-47
2021/06/23 00:16:52;;;;;;;1.00;0.65;;;20.90;57.70;;;;;;5032855;28;20048;-47
2021/06/23 00:19:20;;;;;;;1.92;0.80;;;21.10;57.90;;;;;;5032685;28;20392;-47
2021/06/23 00:21:46;;;;;;;2.08;0.70;;;21.50;58.10;;;;;;5032626;28;20104;-47
2021/06/23 00:24:11;;;;;;;2.60;0.93;;;21.00;57.80;;;;;;5032925;28;20053;-46
2021/06/23 00:26:37;;;;;;;2.20;0.60;;;21.00;57.80;;;;;;5031717;28;20106;-47
2021/06/23 00:29:04;;;;;;;1.83;0.70;;;21.30;58.00;;;;;;5032891;28;20022;-48
2021/06/23 00:31:31;;;;;;;0.98;0.50;;;21.50;58.10;;;;;;5032827;28;20117;-48
2021/06/23 00:34:00;;;;;;;3.00;1.00;;;20.90;57.80;;;;;;5032776;28;20043;-47
2021/06/23 00:36:25;;;;;;;0.90;0.70;;;21.00;58.50;;;;;;5032699;28;20075;-48
2021/06/23 00:38:51;;;;;;;1.15;0.60;;;21.30;58.00;;;;;;5032486;28;20037;-46
2021/06/23 00:41:18;;;;;;;4.28;0.80;;;21.00;57.90;;;;;;5032488;28;20100;-47
2021/06/23 00:43:45;;;;;;;1.88;0.73;;;20.90;57.80;;;;;;5032481;28;20075;-47
2021/06/23 00:46:12;;;;;;;1.50;0.60;;;20.80;57.80;;;;;;5032735;28;20097;-47
2021/06/23 00:48:38;;;;;;;1.10;0.55;;;21.40;58.20;;;;;;5032366;28;20030;-47
2021/06/23 00:51:05;;;;;;;1.90;0.70;;;21.00;58.00;;;;;;5032403;28;20068;-48
2021/06/23 00:53:31;;;;;;;2.20;0.60;;;21.10;58.00;;;;;;5032454;28;20029;-46
2021/06/23 00:55:58;;;;;;;2.33;0.50;;;21.40;58.20;;;;;;5032342;28;20025;-47
2021/06/23 00:58:25;;;;;;;2.38;0.70;;;21.10;58.10;;;;;;5032179;28;20041;-47
2021/06/23 01:00:52;;;;;;;1.15;0.70;;;21.10;58.10;;;;;;5032407;28;20018;-46
2021/06/23 01:03:20;;;;;;;4.70;0.85;;;21.00;58.00;;;;;;5032401;28;20030;-46
2021/06/23 01:05:45;;;;;;;1.48;0.70;;;21.00;58.60;;;;;;5032678;28;20021;-47
2021/06/23 01:08:11;;;;;;;0.52;0.40;;;20.90;57.90;;;;;;5036663;28;20017;-47
2021/06/23 01:10:37;;;;;;;0.90;0.40;;;21.00;78.70;;;;;;5036471;28;20417;-47
2021/06/23 01:13:02;;;;;;;1.63;0.60;;;20.90;58.00;;;;;;5034829;28;20117;-46
2021/06/23 01:15:29;;;;;;;2.63;0.50;;;21.00;58.00;;;;;;5036405;28;20024;-47
2021/06/23 01:17:55;;;;;;;1.70;0.70;;;21.00;58.10;;;;;;5036095;28;20396;-47
2021/06/23 01:20:20;;;;;;;2.28;0.70;;;21.00;58.00;;;;;;5036417;28;20040;-46
2021/06/23 01:22:46;;;;;;;2.08;0.73;;;21.00;58.40;;;;;;5036033;28;20491;-47
2021/06/23 01:25:15;;;;;;;2.60;0.80;;;20.70;58.00;;;;;;5035907;28;20048;-46
2021/06/23 01:27:42;;;;;;;1.85;0.60;;;20.90;58.10;;;;;;5036215;28;20028;-47
2021/06/23 01:30:09;;;;;;;2.28;0.70;;;20.80;58.00;;;;;;5034564;28;20052;-47
2021/06/23 01:32:35;;;;;;;1.63;0.70;;;20.90;58.10;;;;;;5036034;28;20033;-46
2021/06/23 01:35:01;;;;;;;1.25;0.80;;;20.70;58.00;;;;;;5035984;28;20079;-46
2021/06/23 01:37:27;;;;;;;1.40;0.98;;;20.70;58.10;;;;;;5035861;28;20430;-47
2021/06/23 01:39:53;;;;;;;1.60;0.82;;;20.60;58.00;;;;;;5035986;28;20036;-47
2021/06/23 01:42:18;;;;;;;0.88;0.55;;;20.90;58.20;;;;;;5035929;28;20022;-48
2021/06/23 01:44:44;;;;;;;1.55;0.70;;;20.80;58.20;;;;;;5035495;28;20069;-47
2021/06/23 01:47:09;;;;;;;3.33;0.90;;;20.90;58.20;;;;;;5034262;28;20472;-46
2021/06/23 01:49:35;;;;;;;1.48;0.80;;;20.90;58.20;;;;;;5035459;28;20041;-47
2021/06/23 01:52:00;;;;;;;2.95;0.70;;;21.00;58.30;;;;;;5034489;28;20033;-46
2021/06/23 01:54:26;;;;;;;1.88;0.60;;;20.90;58.30;;;;;;5035917;28;20014;-46
2021/06/23 01:56:52;;;;;;;1.02;0.55;;;20.90;58.20;;;;;;5035622;28;20030;-46
2021/06/23 01:59:18;;;;;;;0.85;0.50;;;21.20;58.40;;;;;;5035607;28;20047;-47
2021/06/23 02:01:50;;;;;;;2.05;0.65;;;20.90;79.30;;;;;;5035271;28;20060;-47
2021/06/23 02:04:48;;;;;;;2.28;0.82;;;20.90;58.30;;;;;;5035595;28;20372;-47
2021/06/23 02:07:30;;;;;;;2.45;0.77;;;20.90;58.20;;;;;;5035636;28;20030;-46
2021/06/23 02:10:31;;;;;;;1.73;0.88;;;20.90;58.30;;;;;;5035350;28;20384;-49
2021/06/23 02:13:28;;;;;;;1.13;0.80;;;20.80;58.20;;;;;;5035062;28;20063;-47
2021/06/23 02:16:03;;;;;;;1.58;0.80;;;20.80;58.20;;;;;;5007732;28;20034;-46
2021/06/23 02:18:29;;;;;;;1.05;0.70;;;20.80;58.30;;;;;;5034246;28;20515;-47
2021/06/23 02:20:57;;;;;;;2.88;0.93;;;20.80;58.30;;;;;;5035133;28;20026;-47
2021/06/23 02:23:23;;;;;;;1.80;0.70;;;20.80;58.30;;;;;;5035149;28;20026;-47
2021/06/23 02:25:50;;;;;;;1.83;0.90;;;21.10;58.50;;;;;;5035124;28;20018;-47
2021/06/23 02:28:17;;;;;;;2.67;0.80;;;20.60;58.20;;;;;;5035035;28;20048;-47
2021/06/23 02:30:43;;;;;;;1.95;0.90;;;21.10;58.50;;;;;;5035035;28;20104;-47
2021/06/23 02:33:10;;;;;;;1.70;0.60;;;20.70;58.30;;;;;;5034956;28;20138;-47
2021/06/23 02:35:37;;;;;;;1.25;0.68;;;20.90;58.40;;;;;;5034957;28;20372;-49
2021/06/23 02:38:05;;;;;;;1.00;0.65;;;20.80;58.40;;;;;;5034856;28;20040;-47
2021/06/23 02:40:31;;;;;;;1.60;0.90;;;20.50;58.20;;;;;;5034610;28;20022;-47
2021/06/23 02:42:57;;;;;;;1.42;0.80;;;20.70;58.30;;;;;;5034642;28;20029;-48
2021/06/23 02:45:24;;;;;;;0.80;0.70;;;20.80;58.40;;;;;;5034368;28;20137;-46
2021/06/23 02:47:50;;;;;;;1.52;0.93;;;21.10;58.60;;;;;;5034683;28;20044;-47
2021/06/23 02:50:15;;;;;;;1.55;0.80;;;20.80;58.40;;;;;;5034650;28;20456;-46
2021/06/23 02:52:41;;;;;;;1.25;0.50;;;20.80;58.50;;;;;;5034544;28;20109;-47
2021/06/23 02:55:08;;;;;;;1.52;0.80;;;20.50;58.30;;;;;;5034167;28;20083;-47
2021/06/23 02:57:34;;;;;;;2.00;0.95;;;20.80;58.50;;;;;;5034321;28;20064;-46
2021/06/23 03:00:00;;;;;;;1.85;0.70;;;20.70;58.40;;;;;;5034437;28;20017;-48
2021/06/23 03:02:26;;;;;;;1.38;0.60;;;20.40;58.20;;;;;;5032928;28;20021;-46
2021/06/23 03:04:52;;;;;;;1.20;0.73;;;20.70;58.50;;;;;;5034218;28;20024;-46
2021/06/23 03:07:18;;;;;;;1.52;0.95;;;20.70;59.10;;;;;;5034282;28;20017;-47
2021/06/23 03:09:44;;;;;;;2.55;1.00;;;20.70;58.50;;;;;;5034182;28;20021;-47
2021/06/23 03:12:15;;;;;;;2.45;0.88;;;20.70;58.50;;;;;;5033893;28;20032;-47
2021/06/23 03:14:41;;;;;;;2.13;0.68;;;20.70;58.50;;;;;;5034182;28;20024;-48
2021/06/23 03:17:06;;;;;;;1.38;0.90;;;20.50;58.80;;;;;;5033775;28;20109;-47
2021/06/23 03:19:33;;;;;;;1.60;1.08;;;20.70;59.10;;;;;;5033994;28;20025;-47
2021/06/23 03:22:07;;;;;;;1.17;0.80;;;21.00;58.70;;;;;;5033733;28;20252;-46
2021/06/23 03:24:35;;;;;;;3.75;1.17;;;20.70;58.60;;;;;;5033648;28;20488;-46
2021/06/23 03:27:01;;;;;;;1.75;1.00;;;20.50;58.40;;;;;;5033882;28;20096;-48
2021/06/23 03:29:33;;;;;;;1.38;0.93;;;20.70;58.60;;;;;;5033290;28;20056;-48
2021/06/23 03:32:00;;;;;;;1.17;1.00;;;20.60;58.50;;;;;;5033700;28;20014;-47
2021/06/23 03:34:27;;;;;;;1.63;1.17;;;20.70;58.60;;;;;;5033764;28;20030;-47
2021/06/23 03:36:52;;;;;;;2.53;1.17;;;20.70;58.60;;;;;;5032067;28;20496;-47
2021/06/23 03:39:18;;;;;;;1.58;1.08;;;20.70;58.60;;;;;;5033635;28;20025;-46
2021/06/23 03:41:44;;;;;;;1.65;1.30;;;20.90;58.80;;;;;;5033553;28;20021;-46
2021/06/23 03:44:10;;;;;;;2.42;1.02;;;20.50;58.50;;;;;;5031918;28;20404;-47
2021/06/23 03:46:35;;;;;;;1.00;0.90;;;20.70;58.60;;;;;;5033560;28;20061;-48
2021/06/23 03:49:01;;;;;;;2.17;1.00;;;20.60;58.60;;;;;;5033478;28;20108;-46
2021/06/23 03:51:27;;;;;;;2.28;1.05;;;20.70;58.70;;;;;;5033439;28;20022;-48
2021/06/23 03:53:53;;;;;;;3.03;0.98;;;20.40;58.50;;;;;;5033377;28;20043;-46
2021/06/23 03:56:18;;;;;;;2.17;0.90;;;20.60;58.60;;;;;;5033354;28;20051;-47
2021/06/23 03:58:44;;;;;;;2.75;1.30;;;20.70;58.70;;;;;;5033074;28;20037;-46
2021/06/23 04:01:11;;;;;;;2.38;1.00;;;20.70;58.70;;;;;;5031928;28;20053;-47
2021/06/23 04:03:36;;;;;;;2.03;1.10;;;20.40;58.50;;;;;;5033038;28;20052;-46
2021/06/23 04:06:02;;;;;;;2.50;1.10;;;20.00;58.30;;;;;;5032834;28;20014;-48
2021/06/23 04:08:27;;;;;;;1.58;1.17;;;20.60;58.70;;;;;;5033143;28;20029;-46
2021/06/23 04:10:53;;;;;;;2.85;1.23;;;20.40;58.60;;;;;;5033168;28;20052;-47
2021/06/23 04:13:19;;;;;;;4.53;1.30;;;20.90;58.80;;;;;;5031528;28;20029;-47
2021/06/23 04:15:44;;;;;;;4.30;1.17;;;20.80;58.80;;;;;;5032793;28;20021;-46
2021/06/23 04:18:10;;;;;;;1.65;1.20;;;20.60;58.70;;;;;;5032613;28;20037;-47
2021/06/23 04:20:36;;;;;;;1.13;1.00;;;20.60;58.70;;;;;;5032988;28;20108;-47
2021/06/23 04:23:01;;;;;;;2.17;1.13;;;20.40;58.60;;;;;;5031680;28;20029;-46
2021/06/23 04:25:27;;;;;;;2.63;1.40;;;20.60;58.70;;;;;;5032634;28;20548;-47
2021/06/23 04:27:53;;;;;;;1.85;1.10;;;20.40;58.70;;;;;;5032588;28;20058;-47
2021/06/23 04:30:19;;;;;;;3.75;1.40;;;20.50;58.70;;;;;;5032810;28;20109;-47
2021/06/23 04:32:44;;;;;;;1.80;1.10;;;20.60;58.70;;;;;;5032829;28;20054;-49
2021/06/23 04:35:11;;;;;;;2.67;1.33;;;20.60;58.80;;;;;;5032549;28;20490;-47
2021/06/23 04:37:40;;;;;;;1.98;1.20;;;20.60;58.80;;;;;;5031219;28;20045;-47
2021/06/23 04:40:09;;;;;;;1.57;1.23;;;20.30;58.70;;;;;;5032529;28;20018;-46
2021/06/23 04:42:35;;;;;;;2.08;1.73;;;20.60;58.80;;;;;;5036720;28;20500;-46
2021/06/23 04:45:04;;;;;;;2.10;1.20;;;20.70;58.90;;;;;;5038946;28;20033;-49
2021/06/23 04:47:30;;;;;;;1.40;1.20;;;20.60;58.80;;;;;;5037889;28;20036;-49
2021/06/23 04:49:56;;;;;;;2.50;1.52;;;20.40;58.70;;;;;;5039260;28;20025;-46
2021/06/23 04:52:21;;;;;;;1.55;1.08;;;21.00;59.00;;;;;;5039286;28;20022;-46
2021/06/23 04:54:47;;;;;;;5.00;1.70;;;20.40;58.70;;;;;;5039266;28;20021;-46
2021/06/23 04:57:13;;;;;;;2.60;1.38;;;20.60;58.80;;;;;;5037599;28;20063;-46
2021/06/23 04:59:39;;;;;;;2.38;1.20;;;20.60;58.80;;;;;;5039195;28;20048;-48
2021/06/23 05:02:04;;;;;;;2.65;1.35;;;20.50;58.80;;;;;;5039141;28;20508;-47
2021/06/23 05:04:30;;;;;;;2.60;1.30;;;20.50;58.80;;;;;;5039112;28;20010;-46
2021/06/23 05:06:55;;;;;;;2.28;1.27;;;20.50;58.80;;;;;;5038789;28;20383;-47
2021/06/23 05:09:21;;;;;;;1.17;1.00;;;20.80;59.00;;;;;;5037666;28;20025;-46
2021/06/23 05:11:47;;;;;;;3.03;1.50;;;20.50;58.80;;;;;;5039135;28;20103;-47
2021/06/23 05:14:12;;;;;;;2.90;1.65;;;20.50;58.80;;;;;;5039108;28;20100;-47
2021/06/23 05:16:38;;;;;;;3.03;1.75;;;20.60;58.90;;;;;;5038991;28;20017;-46
2021/06/23 05:19:04;;;;;;;2.67;1.33;;;20.60;58.90;;;;;;5039062;28;20040;-46
2021/06/23 05:21:34;;;;;;;2.60;1.58;;;20.50;58.80;;;;;;5039019;28;20024;-47
2021/06/23 05:24:01;;;;;;;3.05;1.35;;;20.90;59.00;;;;;;5039018;28;20033;-47
2021/06/23 05:26:27;;;;;;;2.45;1.63;;;20.30;58.70;;;;;;5039015;28;20022;-46
2021/06/23 05:28:52;;;;;;;2.83;1.20;;;20.60;58.80;;;;;;5038948;28;20391;-47
2021/06/23 05:31:18;;;;;;;2.75;1.42;;;20.60;58.70;;;;;;5038892;28;20022;-47
2021/06/23 05:33:43;;;;;;;3.05;1.40;;;20.60;58.70;;;;;;5038850;28;20049;-46
2021/06/23 05:36:09;;;;;;;2.47;1.42;;;20.30;58.60;;;;;;5038551;28;20044;-47
2021/06/23 05:38:35;;;;;;;3.13;1.60;;;20.40;58.70;;;;;;5038426;28;20033;-47
2021/06/23 05:41:00;;;;;;;3.95;1.25;;;20.30;58.60;;;;;;5038895;28;20029;-47
2021/06/23 05:43:26;;;;;;;2.38;1.70;;;20.60;58.80;;;;;;5038316;28;20049;-47
2021/06/23 05:45:51;;;;;;;4.80;1.83;;;20.50;58.80;;;;;;5038435;28;20017;-47
2021/06/23 05:48:17;;;;;;;1.73;1.50;;;20.60;58.80;;;;;;5038401;28;20104;-47
2021/06/23 05:50:44;;;;;;;12.85;1.30;;;20.40;58.70;;;;;;5038420;28;20100;-49
2021/06/23 05:53:09;;;;;;;2.45;1.52;;;20.60;58.80;;;;;;5036219;28;20098;-47
2021/06/23 05:55:37;;;;;;;2.90;1.70;;;20.30;58.60;;;;;;5035643;28;20465;-50
2021/06/23 05:58:03;;;;;;;4.78;1.50;;;20.60;58.60;;;;;;5035458;28;20057;-48
2021/06/23 06:00:29;;;;;;;4.85;1.70;;;20.60;58.90;;;;;;5035254;28;20068;-48
2021/06/23 06:02:54;;;;;;;9.23;1.83;;;21.10;59.30;;;;;;5035438;28;20029;-49
2021/06/23 06:05:20;;;;;;;4.82;2.00;;;20.90;59.40;;;;;;5035439;28;20527;-47
2021/06/23 06:07:47;;;;;;;6.15;1.50;;;20.60;59.00;;;;;;5035403;28;20047;-48
2021/06/23 06:10:13;;;;;;;4.55;1.50;;;20.50;59.10;;;;;;5035193;28;20032;-47
2021/06/23 06:12:39;;;;;;;3.67;1.63;;;20.60;59.20;;;;;;5034991;28;20037;-48
2021/06/23 06:15:05;;;;;;;5.03;1.80;;;20.60;59.00;;;;;;5035033;28;20021;-48
2021/06/23 06:17:31;;;;;;;2.72;1.63;;;20.60;59.00;;;;;;5035160;28;20033;-48
2021/06/23 06:19:57;;;;;;;1.92;1.42;;;20.60;59.10;;;;;;5035198;28;20469;-47
2021/06/23 06:22:24;;;;;;;2.20;1.48;;;20.40;59.00;;;;;;5033484;28;20033;-47
2021/06/23 06:24:50;;;;;;;3.35;1.42;;;20.40;58.90;;;;;;5034675;28;20057;-47
2021/06/23 06:27:15;;;;;;;4.57;2.00;;;20.50;58.90;;;;;;5034677;28;20088;-48
2021/06/23 06:29:41;;;;;;;2.25;1.70;;;20.40;58.90;;;;;;5034951;28;20033;-47
2021/06/23 06:32:07;;;;;;;4.22;2.13;;;20.70;59.00;;;;;;5034813;28;20021;-48
2021/06/23 06:34:32;;;;;;;5.78;1.48;;;20.60;58.90;;;;;;5034798;28;20056;-47
2021/06/23 06:36:58;;;;;;;3.90;1.80;;;20.60;58.90;;;;;;5034705;28;20567;-48
2021/06/23 06:39:23;;;;;;;2.20;1.73;;;20.50;59.00;;;;;;5033234;28;20124;-47
2021/06/23 06:41:49;;;;;;;5.90;2.00;;;20.70;59.20;;;;;;5034423;28;20022;-50
2021/06/23 06:44:15;;;;;;;3.33;1.92;;;20.60;59.30;;;;;;5034396;28;20052;-47
2021/06/23 06:46:42;;;;;;;4.55;1.83;;;20.40;59.30;;;;;;5033470;28;20026;-48
2021/06/23 06:49:08;;;;;;;3.47;1.70;;;20.40;59.30;;;;;;5034249;28;20487;-47
2021/06/23 06:51:33;;;;;;;3.42;1.80;;;20.60;59.30;;;;;;5034529;28;20025;-47
2021/06/23 06:53:59;;;;;;;5.65;1.88;;;20.40;59.10;;;;;;5034564;28;20373;-45
2021/06/23 06:56:24;;;;;;;4.15;1.60;;;20.40;59.00;;;;;;5033246;28;20025;-46
2021/06/23 06:58:50;;;;;;;1.52;1.42;;;20.30;58.80;;;;;;5034585;28;20030;-46
2021/06/23 07:01:16;;;;;;;3.00;1.60;;;20.70;79.90;;;;;;5034396;28;20024;-46
2021/06/23 07:03:42;;;;;;;2.83;1.60;;;20.40;58.90;;;;;;5033141;28;20391;-47
2021/06/23 07:06:08;;;;;;;5.82;1.95;;;20.60;59.20;;;;;;5033836;28;20018;-46
2021/06/23 07:08:33;;;;;;;2.30;1.63;;;20.60;59.40;;;;;;5033787;28;20042;-47
2021/06/23 07:10:59;;;;;;;4.20;1.60;;;20.50;59.20;;;;;;5033755;28;20024;-48
2021/06/23 07:13:25;;;;;;;4.68;2.13;;;20.70;59.40;;;;;;5033795;28;20029;-47
2021/06/23 07:15:50;;;;;;;4.43;1.80;;;20.70;59.40;;;;;;5033962;28;20096;-48
2021/06/23 07:18:16;;;;;;;4.15;1.50;;;20.50;59.20;;;;;;5034035;28;20383;-48
2021/06/23 07:20:42;;;;;;;3.42;1.50;;;20.70;59.30;;;;;;5034100;28;20494;-46
2021/06/23 07:23:07;;;;;;;2.42;1.58;;;20.70;59.10;;;;;;5033846;28;20321;-47
2021/06/23 07:25:33;;;;;;;2.08;1.60;;;20.50;59.00;;;;;;5034021;28;20121;-47
2021/06/23 07:27:59;;;;;;;7.03;2.00;;;20.80;59.10;;;;;;5033962;28;20017;-46
2021/06/23 07:30:24;;;;;;;5.00;1.60;;;20.50;58.90;;;;;;5033580;28;20561;-46
2021/06/23 07:32:54;;;;;;;6.40;1.60;;;20.60;59.00;;;;;;5033605;28;20037;-47
2021/06/23 07:38:08;;;;;;;3.53;1.83;;;20.70;59.60;;;;;;5033450;28;20103;-48
2021/06/23 07:43:11;;;;;;;4.30;2.20;;;20.80;59.70;;;;;;5032544;28;20083;-46
2021/06/23 07:45:38;;;;;;;3.42;1.70;;;20.80;59.70;;;;;;5033145;28;20042;-45
2021/06/23 07:48:04;;;;;;;10.15;1.92;;;20.80;59.80;;;;;;5031980;28;20539;-47
2021/06/23 07:50:37;;;;;;;6.10;2.05;;;20.90;59.90;;;;;;5031981;28;20476;-47
2021/06/23 07:53:22;;;;;;;3.97;2.40;;;20.90;59.90;;;;;;5033485;28;20025;-47
2021/06/23 07:55:51;;;;;;;6.60;2.58;;;20.90;60.10;;;;;;5033433;28;20021;-46
2021/06/23 08:12:06;;;;;;;5.65;2.33;;;21.00;60.50;;;;;;4979119;28;20033;-46
2021/06/23 08:14:32;;;;;;;7.10;2.30;;;21.00;60.50;;;;;;5032963;28;20361;-48
2021/06/23 08:16:57;;;;;;;4.95;2.00;;;20.70;60.10;;;;;;5032313;28;20030;-48
2021/06/23 08:19:23;;;;;;;3.83;2.40;;;20.70;60.00;;;;;;5032836;28;20084;-47
2021/06/23 08:21:48;;;;;;;5.30;1.85;;;21.40;60.20;;;;;;5033065;28;20036;-47
2021/06/23 08:24:14;;;;;;;2.92;1.60;;;20.80;59.80;;;;;;5032947;28;20071;-47
2021/06/23 08:26:40;;;;;;;4.05;1.60;;;20.80;59.70;;;;;;5032722;28;20361;-46
2021/06/23 08:29:05;;;;;;;3.95;1.90;;;20.70;59.60;;;;;;5032785;28;20476;-48
2021/06/23 08:31:31;;;;;;;3.97;1.58;;;21.00;59.60;;;;;;5032537;28;20049;-47
2021/06/23 08:33:57;;;;;;;5.50;1.75;;;21.10;59.60;;;;;;5014990;28;20088;-48
2021/06/23 08:36:22;;;;;;;2.58;1.63;;;21.20;59.50;;;;;;5032984;28;20053;-47
2021/06/23 08:38:48;;;;;;;8.35;1.90;;;20.90;59.30;;;;;;5031220;28;20041;-47
2021/06/23 08:41:14;;;;;;;2.78;1.33;;;20.90;59.10;;;;;;5032760;28;20030;-48
2021/06/23 08:43:40;;;;;;;3.00;1.50;;;20.90;59.00;;;;;;5032134;28;20029;-48
2021/06/23 08:46:06;;;;;;;4.22;1.67;;;20.90;58.90;;;;;;5031377;28;20384;-48
2021/06/23 08:48:32;;;;;;;3.58;1.60;;;21.00;58.80;;;;;;5031300;28;20032;-48
2021/06/23 08:51:06;;;;;;;3.42;1.75;;;21.00;58.60;;;;;;5032531;28;20041;-48
2021/06/23 08:53:34;;;;;;;3.75;1.55;;;21.00;58.60;;;;;;5032840;28;20468;-46
2021/06/23 08:56:00;;;;;;;5.25;1.73;;;21.00;79.00;;;;;;5032677;28;20105;-47
2021/06/23 08:58:25;;;;;;;3.05;1.40;;;20.90;58.70;;;;;;5032601;28;20451;-49
2021/06/23 09:00:53;;;;;;;2.88;1.33;;;21.00;59.20;;;;;;5031169;28;20103;-47
2021/06/23 09:03:18;;;;;;;4.50;1.20;;;20.80;58.90;;;;;;5032388;28;20030;-47
2021/06/23 09:05:57;;;;;;;2.88;1.30;;;21.00;58.50;;;;;;5032292;28;20093;-47
2021/06/23 09:08:29;;;;;;;4.00;1.48;;;21.00;58.80;;;;;;5031155;28;20431;-48
2021/06/23 09:10:56;;;;;;;3.95;1.20;;;21.00;58.60;;;;;;5032201;28;20036;-47
2021/06/23 09:13:22;;;;;;;2.28;1.42;;;20.80;58.30;;;;;;5032656;28;20109;-48
2021/06/23 09:16:00;;;;;;;4.72;1.15;;;21.00;58.40;;;;;;5032600;28;20112;-49
2021/06/23 09:18:35;;;;;;;4.53;1.48;;;21.00;58.50;;;;;;5032568;28;20124;-46
2021/06/23 09:21:15;;;;;;;4.05;1.30;;;21.20;58.50;;;;;;5032383;28;20025;-48
2021/06/23 09:23:44;;;;;;;3.20;0.93;;;21.00;58.40;;;;;;5032771;28;20021;-48
2021/06/23 09:26:29;;;;;;;3.03;1.17;;;21.00;58.40;;;;;;5032590;28;20040;-47
2021/06/23 09:29:12;;;;;;;4.55;1.60;;;21.00;58.30;;;;;;5034141;28;20457;-47
2021/06/23 09:32:01;;;;;;;3.05;1.20;;;20.90;58.20;;;;;;5035981;28;20022;-48
2021/06/23 09:34:30;;;;;;;3.63;1.00;;;21.00;58.20;;;;;;5036310;28;20376;-48
2021/06/23 09:36:56;;;;;;;2.33;1.15;;;20.90;58.10;;;;;;5035907;28;20129;-47
2021/06/23 09:39:28;;;;;;;2.13;1.30;;;21.20;58.30;;;;;;5036239;28;20108;-47
2021/06/23 09:41:54;;;;;;;2.30;1.10;;;20.70;58.10;;;;;;5035788;28;20030;-47
2021/06/23 09:44:22;;;;;;;3.33;1.33;;;20.70;58.20;;;;;;5035550;28;20300;-47
2021/06/23 09:46:49;;;;;;;1.38;0.90;;;21.00;58.20;;;;;;5034492;28;20113;-47
2021/06/23 09:49:17;;;;;;;3.67;1.17;;;21.00;58.20;;;;;;5035938;28;20029;-48
2021/06/23 09:51:49;;;;;;;2.42;1.15;;;21.00;58.10;;;;;;5035537;28;20028;-47
2021/06/23 09:54:23;;;;;;;2.45;0.98;;;20.90;57.90;;;;;;5035930;28;20040;-47
2021/06/23 09:56:49;;;;;;;2.63;0.93;;;20.90;58.00;;;;;;5035344;28;20021;-47
2021/06/23 09:59:35;;;;;;;2.85;0.95;;;20.80;57.90;;;;;;5035515;28;20103;-48
2021/06/23 10:02:01;;;;;;;4.22;1.02;;;21.10;58.10;;;;;;5035150;28;20033;-47
2021/06/23 10:04:35;;;;;;;1.95;1.00;;;19.70;57.30;;;;;;5035494;28;20033;-48
2021/06/23 10:07:03;;;;;;;5.57;1.40;;;20.90;57.80;;;;;;5014427;28;20069;-48
2021/06/23 10:09:31;;;;;;;1.95;0.70;;;20.70;57.60;;;;;;5015714;28;20049;-48
2021/06/23 10:12:00;;;;;;;2.10;1.05;;;20.90;57.60;;;;;;5015582;28;20014;-47
2021/06/23 10:14:29;;;;;;;1.50;0.80;;;21.00;57.70;;;;;;5015575;28;20049;-46
2021/06/23 10:16:55;;;;;;;1.50;1.00;;;21.20;57.90;;;;;;5015076;28;20018;-47
2021/06/23 10:19:21;;;;;;;2.63;0.80;;;20.80;57.60;;;;;;5015339;28;20022;-47
2021/06/23 10:21:48;;;;;;;3.80;1.35;;;20.70;57.50;;;;;;5015371;28;20092;-49
2021/06/23 10:24:16;;;;;;;2.40;1.00;;;20.90;57.10;;;;;;5015423;28;20072;-47
2021/06/23 10:26:48;;;;;;;4.70;1.15;;;20.90;57.50;;;;;;5013857;28;20025;-47
2021/06/23 10:29:18;;;;;;;2.05;1.00;;;20.80;57.70;;;;;;5015318;28;20025;-47
2021/06/23 10:31:45;;;;;;;2.35;1.10;;;21.20;58.00;;;;;;5014983;28;20026;-47
2021/06/23 10:34:11;;;;;;;2.80;0.93;;;20.80;57.70;;;;;;5014951;28;20034;-47
2021/06/23 10:36:37;;;;;;;2.47;1.00;;;21.20;58.10;;;;;;5013499;28;20484;-45
2021/06/23 10:39:04;;;;;;;1.10;0.57;;;21.00;57.80;;;;;;5014630;28;20384;-47
2021/06/23 10:41:39;;;;;;;3.08;0.90;;;21.00;57.90;;;;;;5014921;28;20100;-48
2021/06/23 10:44:19;;;;;;;3.40;1.17;;;21.00;57.50;;;;;;5014669;28;20046;-47
2021/06/23 10:46:47;;;;;;;2.45;1.02;;;21.00;57.40;;;;;;5014893;28;20428;-47
2021/06/23 10:49:16;;;;;;;1.40;0.73;;;21.00;57.40;;;;;;5014990;28;20021;-48
2021/06/23 10:51:42;;;;;;;4.23;1.10;;;21.00;57.30;;;;;;5014762;28;20018;-46
2021/06/23 10:54:40;;;;;;;4.40;0.90;;;21.30;57.30;;;;;;5014968;28;20026;-47
2021/06/23 10:57:26;;;;;;;3.00;1.10;;;20.80;57.30;;;;;;4971088;28;20088;-48
2021/06/23 10:59:54;;;;;;;1.95;1.00;;;21.00;57.20;;;;;;5014522;28;20033;-47
2021/06/23 11:02:29;;;;;;;1.75;0.70;;;21.00;57.30;;;;;;5014498;28;20097;-49
2021/06/23 11:04:57;;;;;;;2.53;0.98;;;21.00;57.20;;;;;;5014693;28;20141;-47
2021/06/23 11:07:41;;;;;;;0.93;0.60;;;21.00;57.10;;;;;;5013076;28;20057;-48
2021/06/23 11:10:13;;;;;;;1.83;0.65;;;21.10;57.10;;;;;;5014381;28;20038;-47
2021/06/23 11:12:50;;;;;;;2.83;1.00;;;21.10;57.10;;;;;;5014819;28;20104;-47
2021/06/23 11:15:19;;;;;;;3.78;1.15;;;21.20;57.10;;;;;;5014330;28;20112;-48
2021/06/23 11:17:54;;;;;;;2.28;0.88;;;21.10;57.00;;;;;;4996941;28;20044;-46
2021/06/23 11:20:37;;;;;;;4.55;0.90;;;21.20;57.10;;;;;;5014492;28;20018;-47
2021/06/23 11:23:03;;;;;;;2.50;0.82;;;21.50;57.20;;;;;;5014100;28;20029;-45
2021/06/23 11:25:33;;;;;;;0.93;0.77;;;21.20;56.90;;;;;;5014265;28;20109;-46
2021/06/23 11:28:07;;;;;;;4.43;0.88;;;21.10;56.80;;;;;;5014371;28;20425;-47
2021/06/23 11:30:34;;;;;;;4.90;1.00;;;21.10;56.80;;;;;;5014216;28;20111;-46
2021/06/23 11:33:28;;;;;;;2.35;0.98;;;21.10;56.80;;;;;;5014115;28;20029;-46
2021/06/23 11:36:03;;;;;;;1.70;0.77;;;21.20;56.70;;;;;;5014126;28;20042;-46
2021/06/23 11:38:29;;;;;;;2.55;1.08;;;21.30;56.80;;;;;;5014020;28;20033;-46
2021/06/23 11:40:56;;;;;;;3.45;1.50;;;21.20;57.40;;;;;;5012435;28;20029;-45
2021/06/23 11:43:22;;;;;;;7.63;2.15;;;21.20;57.10;;;;;;5013900;28;20037;-45
2021/06/23 11:45:49;;;;;;;6.25;1.95;;;21.20;53.70;;;;;;5013408;28;20057;-45
2021/06/23 11:48:16;;;;;;;6.75;1.80;;;20.90;53.20;;;;;;5013884;28;20083;-47
2021/06/23 11:50:44;;;;;;;6.45;2.00;;;21.10;53.40;;;;;;5012874;28;20018;-47
2021/06/23 11:53:15;;;;;;;6.13;1.58;;;21.00;53.80;;;;;;5013944;28;20144;-47
2021/06/23 11:55:42;;;;;;;3.40;1.60;;;20.90;74.00;;;;;;5012336;28;20428;-46
2021/06/23 11:58:08;;;;;;;4.82;2.20;;;21.00;53.80;;;;;;5013759;28;20115;-45
2021/06/23 12:00:36;;;;;;;7.40;2.08;;;20.90;53.70;;;;;;5013650;28;20025;-46
2021/06/23 12:03:02;;;;;;;7.68;2.42;;;20.90;54.00;;;;;;5013783;28;20499;-47
2021/06/23 12:05:29;;;;;;;6.97;2.10;;;20.90;54.30;;;;;;5013358;28;20029;-48
2021/06/23 12:07:55;;;;;;;10.48;2.05;;;20.80;53.90;;;;;;5012193;28;20065;-46
2021/06/23 12:10:23;;;;;;;10.98;2.75;;;21.10;53.70;;;;;;5013512;28;20014;-47
2021/06/23 12:12:49;;;;;;;3.78;1.70;;;21.10;53.70;;;;;;5013214;28;20050;-45
2021/06/23 12:15:20;;;;;;;6.30;2.28;;;21.10;54.30;;;;;;5013454;28;20435;-46
2021/06/23 12:17:48;;;;;;;4.30;1.60;;;20.70;54.30;;;;;;5013330;28;20100;-46
2021/06/23 12:20:15;;;;;;;5.78;1.98;;;20.60;53.90;;;;;;5013389;28;20029;-45
2021/06/23 12:22:41;;;;;;;5.93;2.20;;;20.70;54.10;;;;;;5013307;28;20420;-46
2021/06/23 12:25:09;;;;;;;9.18;2.33;;;20.80;54.70;;;;;;5013630;28;20022;-47
2021/06/23 12:27:35;;;;;;;4.68;1.88;;;20.80;54.20;;;;;;5011803;28;20146;-47
2021/06/23 12:30:01;;;;;;;5.30;2.00;;;20.80;54.00;;;;;;5013495;28;20385;-47
2021/06/23 12:32:27;;;;;;;6.07;1.90;;;21.00;54.50;;;;;;5012095;28;20496;-48
2021/06/23 12:34:52;;;;;;;5.47;1.75;;;20.80;54.20;;;;;;5012892;28;20465;-48
2021/06/23 12:37:18;;;;;;;5.00;1.50;;;20.80;54.30;;;;;;5012919;28;20026;-47
2021/06/23 12:39:44;;;;;;;4.32;1.30;;;20.90;54.30;;;;;;5013504;28;20025;-47
2021/06/23 12:42:10;;;;;;;4.85;1.40;;;20.90;54.30;;;;;;5012961;28;20022;-46
2021/06/23 12:44:36;;;;;;;7.80;1.88;;;21.00;54.40;;;;;;5012794;28;20045;-46
2021/06/23 12:47:04;;;;;;;3.38;1.60;;;21.20;54.80;;;;;;5012807;28;20021;-47
2021/06/23 12:49:31;;;;;;;5.88;1.77;;;21.00;54.70;;;;;;5013019;28;20161;-47
2021/06/23 12:51:58;;;;;;;5.30;1.70;;;20.80;54.30;;;;;;5013004;28;20018;-47
2021/06/23 12:54:24;;;;;;;5.50;2.00;;;21.10;54.40;;;;;;5012792;28;20081;-48
2021/06/23 12:56:50;;;;;;;6.25;1.88;;;20.80;54.20;;;;;;5012538;28;20536;-47
2021/06/23 12:59:15;;;;;;;4.00;2.17;;;21.00;53.90;;;;;;5012579;28;20122;-47
2021/06/23 13:01:41;;;;;;;7.28;2.10;;;21.00;54.00;;;;;;5012638;28;20101;-48
2021/06/23 13:04:07;;;;;;;10.38;1.95;;;20.70;53.40;;;;;;5016871;28;20068;-47
2021/06/23 13:06:32;;;;;;;6.07;1.98;;;21.10;53.60;;;;;;5016893;28;20026;-48
2021/06/23 13:08:58;;;;;;;4.20;1.88;;;21.30;53.50;;;;;;5016760;28;20018;-47